createdAt,value
2023-05-05T00:00:29.770Z,18.05
2023-05-05T00:02:58.670Z,17.78
2023-05-05T00:05:27.117Z,17.83
2023-05-05T00:07:55.500Z,17.87
2023-05-05T00:10:25.614Z,18.14
2023-05-05T00:12:54.024Z,18.29
2023-05-05T00:15:22.314Z,18.26
2023-05-05T00:17:50.735Z,18.30
2023-05-05T00:20:19.077Z,18.46
2023-05-05T00:22:47.439Z,18.64
2023-05-05T00:25:16.007Z,18.85
2023-05-05T00:27:45.774Z,18.82
2023-05-05T00:30:14.659Z,18.99
2023-05-05T00:32:43.035Z,19.12
2023-05-05T00:35:11.664Z,19.22
2023-05-05T00:37:40.040Z,19.01
2023-05-05T00:40:10.493Z,19.21
2023-05-05T00:42:42.958Z,19.29
2023-05-05T00:45:14.865Z,19.32
2023-05-05T00:47:47.513Z,19.29
2023-05-05T00:50:24.638Z,19.31
2023-05-05T00:52:55.939Z,19.32
2023-05-05T00:55:24.392Z,19.38
2023-05-05T00:57:53.420Z,19.40
2023-05-05T01:00:23.457Z,19.43
2023-05-05T01:02:52.559Z,19.41
2023-05-05T01:05:23.445Z,19.42
2023-05-05T01:08:09.769Z,19.43
2023-05-05T01:10:42.556Z,18.63
2023-05-05T01:13:27.316Z,19.32
2023-05-05T01:16:06.886Z,19.30
2023-05-05T01:18:43.370Z,19.28
2023-05-05T01:21:16.865Z,19.19
2023-05-05T01:24:40.781Z,19.08
2023-05-05T01:27:39.381Z,18.97
2023-05-05T01:30:25.209Z,18.84
2023-05-05T01:32:59.532Z,18.72
2023-05-05T01:35:33.739Z,18.63
2023-05-05T01:38:07.688Z,18.50
2023-05-05T01:40:42.463Z,18.46
2023-05-05T01:43:13.267Z,18.41
2023-05-05T01:45:44.852Z,18.42
2023-05-05T01:48:18.433Z,18.35
2023-05-05T01:50:47.950Z,18.31
2023-05-05T01:53:19.049Z,18.25
2023-05-05T01:55:48.992Z,18.25
2023-05-05T01:58:18.586Z,18.21
2023-05-05T02:00:48.138Z,18.17
2023-05-05T02:03:20.060Z,18.12
2023-05-05T02:05:50.273Z,18.07
2023-05-05T02:08:19.356Z,17.58
2023-05-05T02:10:50.855Z,17.98
2023-05-05T02:13:20.659Z,17.99
2023-05-05T02:15:50.605Z,17.98
2023-05-05T02:18:21.085Z,17.93
2023-05-05T02:20:49.665Z,17.83
2023-05-05T02:23:18.182Z,17.77
2023-05-05T02:25:51.673Z,17.74
2023-05-05T02:28:23.712Z,17.75
2023-05-05T02:30:58.412Z,17.77
2023-05-05T02:33:33.946Z,17.68
2023-05-05T02:36:11.541Z,17.70
2023-05-05T02:38:54.830Z,17.67
2023-05-05T02:41:26.878Z,17.67
2023-05-05T02:43:58.419Z,17.70
2023-05-05T02:46:29.290Z,17.56
2023-05-05T02:49:00.775Z,17.52
2023-05-05T02:51:29.462Z,17.42
2023-05-05T02:54:01.463Z,17.38
2023-05-05T02:56:41.718Z,17.26
2023-05-05T02:59:20.118Z,17.23
2023-05-05T03:02:02.572Z,17.13
2023-05-05T03:04:41.416Z,17.20
2023-05-05T03:07:15.364Z,17.19
2023-05-05T03:09:58.396Z,17.07
2023-05-05T03:12:33.412Z,17.21
2023-05-05T03:15:15.913Z,17.19
2023-05-05T03:17:46.438Z,17.26
2023-05-05T03:20:17.349Z,17.29
2023-05-05T03:22:49.360Z,17.30
2023-05-05T03:25:17.976Z,17.35
2023-05-05T03:27:46.457Z,17.34
2023-05-05T03:30:22.093Z,17.34
2023-05-05T03:32:53.048Z,17.32
2023-05-05T03:35:24.089Z,17.31
2023-05-05T03:37:52.589Z,17.28
2023-05-05T03:40:27.200Z,17.24
2023-05-05T03:43:02.662Z,17.25
2023-05-05T03:45:31.204Z,17.25
2023-05-05T03:47:59.834Z,17.17
2023-05-05T03:50:29.634Z,17.13
2023-05-05T03:52:57.987Z,17.12
2023-05-05T03:55:26.524Z,17.15
2023-05-05T03:57:54.853Z,17.09
2023-05-05T04:00:23.377Z,17.19
2023-05-05T04:02:51.873Z,16.71
2023-05-05T04:05:22.587Z,17.14
2023-05-05T04:07:52.583Z,17.13
2023-05-05T04:10:21.456Z,16.59
2023-05-05T04:12:50.093Z,17.13
2023-05-05T04:15:18.472Z,17.09
2023-05-05T04:17:47.346Z,16.65
2023-05-05T04:20:15.817Z,17.01
2023-05-05T04:22:44.180Z,17.12
2023-05-05T04:25:13.930Z,17.14
2023-05-05T04:27:42.361Z,17.13
2023-05-05T04:30:11.953Z,17.08
2023-05-05T04:32:42.172Z,17.13
2023-05-05T04:35:12.097Z,17.14
2023-05-05T04:37:40.727Z,17.10
2023-05-05T04:40:11.174Z,17.09
2023-05-05T04:42:42.028Z,16.45
2023-05-05T04:45:11.790Z,17.03
2023-05-05T04:47:40.410Z,16.91
2023-05-05T04:50:11.380Z,16.92
2023-05-05T04:52:40.584Z,16.97
2023-05-05T04:55:11.723Z,17.05
2023-05-05T04:57:41.376Z,17.11
2023-05-05T05:00:11.536Z,17.15
2023-05-05T05:02:40.226Z,17.24
2023-05-05T05:05:10.050Z,17.25
2023-05-05T05:07:38.368Z,17.33
2023-05-05T05:10:08.356Z,17.38
2023-05-05T05:12:37.273Z,17.51
2023-05-05T05:15:09.444Z,17.60
2023-05-05T05:17:37.856Z,17.59
2023-05-05T05:20:09.122Z,17.68
2023-05-05T05:22:38.953Z,17.79
2023-05-05T05:25:11.183Z,17.87
2023-05-05T05:27:39.990Z,17.94
2023-05-05T05:30:11.272Z,18.08
2023-05-05T05:32:39.808Z,18.20
2023-05-05T05:35:09.221Z,18.26
2023-05-05T05:37:37.770Z,18.37
2023-05-05T05:40:08.608Z,18.46
2023-05-05T05:42:39.991Z,18.57
2023-05-05T05:45:11.592Z,18.65
2023-05-05T05:47:41.003Z,18.85
2023-05-05T05:50:10.582Z,19.06
2023-05-05T05:52:39.159Z,19.26
2023-05-05T05:55:10.384Z,18.87
2023-05-05T05:57:40.884Z,19.65
2023-05-05T06:00:14.215Z,19.73
2023-05-05T06:02:46.072Z,19.92
2023-05-05T06:05:18.733Z,20.02
2023-05-05T06:07:48.546Z,20.20
2023-05-05T06:10:27.485Z,20.27
2023-05-05T06:13:02.820Z,20.46
2023-05-05T06:15:34.384Z,20.59
2023-05-05T06:18:04.988Z,20.61
2023-05-05T06:20:33.357Z,20.68
2023-05-05T06:23:01.704Z,20.71
2023-05-05T06:25:33.411Z,20.57
2023-05-05T06:28:02.138Z,20.51
2023-05-05T06:30:30.450Z,20.54
2023-05-05T06:33:00.240Z,20.45
2023-05-05T06:35:30.268Z,20.38
2023-05-05T06:37:58.688Z,20.40
2023-05-05T06:40:26.980Z,20.37
2023-05-05T06:42:55.487Z,20.35
2023-05-05T06:45:29.092Z,20.39
2023-05-05T06:47:58.971Z,20.45
2023-05-05T06:50:27.566Z,20.38
2023-05-05T06:52:56.223Z,20.45
2023-05-05T06:55:25.265Z,20.37
2023-05-05T06:57:53.644Z,20.36
2023-05-05T07:00:27.082Z,20.40
2023-05-05T07:02:56.119Z,20.43
2023-05-05T07:05:25.846Z,20.49
2023-05-05T07:07:54.900Z,20.56
2023-05-05T07:10:24.457Z,20.58
2023-05-05T07:12:54.866Z,20.55
2023-05-05T07:15:27.533Z,20.48
2023-05-05T07:17:57.767Z,20.45
2023-05-05T07:20:28.224Z,20.42
2023-05-05T07:22:56.649Z,20.43
2023-05-05T07:25:24.976Z,20.46
2023-05-05T07:27:53.382Z,20.03
2023-05-05T07:30:22.066Z,20.40
2023-05-05T07:32:51.867Z,20.35
2023-05-05T07:35:20.275Z,20.17
2023-05-05T07:37:51.498Z,20.09
2023-05-05T07:40:20.771Z,20.18
2023-05-05T07:42:49.605Z,20.21
2023-05-05T07:45:18.586Z,20.16
2023-05-05T07:47:47.881Z,20.20
2023-05-05T07:50:16.369Z,20.20
2023-05-05T07:52:49.961Z,20.24
2023-05-05T07:55:23.554Z,20.21
2023-05-05T07:57:51.888Z,20.23
2023-05-05T08:00:21.696Z,20.27
2023-05-05T08:02:50.384Z,20.26
2023-05-05T08:05:19.255Z,20.20
2023-05-05T08:07:47.561Z,20.25
2023-05-05T08:10:16.020Z,20.18
2023-05-05T08:12:45.695Z,19.47
2023-05-05T08:15:14.122Z,20.12
2023-05-05T08:17:47.981Z,20.17
2023-05-05T08:20:17.056Z,20.14
2023-05-05T08:22:45.981Z,19.98
2023-05-05T08:25:15.268Z,20.15
2023-05-05T08:27:46.094Z,20.02
2023-05-05T08:30:17.185Z,20.13
2023-05-05T08:32:45.556Z,20.04
2023-05-05T08:35:14.221Z,20.02
2023-05-05T08:37:42.933Z,19.96
2023-05-05T08:40:14.749Z,19.95
2023-05-05T08:42:46.408Z,19.95
2023-05-05T08:45:14.988Z,19.99
2023-05-05T08:47:44.582Z,19.97
2023-05-05T08:50:13.442Z,20.00
2023-05-05T08:52:45.263Z,19.92
2023-05-05T08:55:18.422Z,19.76
2023-05-05T08:57:53.737Z,19.94
2023-05-05T09:00:23.357Z,19.95
2023-05-05T09:02:51.968Z,19.38
2023-05-05T09:05:20.667Z,19.94
2023-05-05T09:07:49.114Z,19.97
2023-05-05T09:10:18.135Z,19.98
2023-05-05T09:12:49.582Z,19.94
2023-05-05T09:15:18.131Z,19.97
2023-05-05T09:17:46.676Z,20.01
2023-05-05T09:20:16.190Z,19.95
2023-05-05T09:22:46.758Z,19.83
2023-05-05T09:25:15.985Z,19.84
2023-05-05T09:27:47.012Z,19.75
2023-05-05T09:30:19.647Z,19.69
2023-05-05T09:32:49.979Z,19.65
2023-05-05T09:35:20.078Z,19.69
2023-05-05T09:37:49.504Z,19.71
2023-05-05T09:40:20.165Z,19.80
2023-05-05T09:42:49.010Z,19.65
2023-05-05T09:45:28.601Z,19.58
2023-05-05T09:48:00.192Z,19.57
2023-05-05T09:50:30.889Z,19.66
2023-05-05T09:53:01.028Z,19.57
2023-05-05T09:55:30.998Z,19.59
2023-05-05T09:58:18.183Z,19.65
2023-05-05T10:00:48.494Z,19.79
2023-05-05T10:03:17.276Z,19.67
2023-05-05T10:05:51.663Z,19.69
2023-05-05T10:08:21.714Z,19.72
2023-05-05T10:10:53.984Z,19.75
2023-05-05T10:13:24.223Z,19.73
2023-05-05T10:15:57.299Z,19.80
2023-05-05T10:18:27.324Z,19.84
2023-05-05T10:20:59.642Z,19.86
2023-05-05T10:23:39.375Z,19.81
2023-05-05T10:26:09.634Z,19.71
2023-05-05T10:28:46.793Z,19.68
2023-05-05T10:31:26.493Z,19.67
2023-05-05T10:34:05.441Z,19.74
2023-05-05T10:36:35.409Z,19.68
2023-05-05T10:39:06.729Z,19.64
2023-05-05T10:41:36.259Z,19.66
2023-05-05T10:44:06.510Z,19.51
2023-05-05T10:46:36.484Z,19.64
2023-05-05T10:49:15.802Z,19.58
2023-05-05T10:51:54.295Z,19.50
2023-05-05T10:54:29.909Z,19.43
2023-05-05T10:57:01.264Z,19.41
2023-05-05T10:59:48.189Z,19.34
2023-05-05T11:02:26.471Z,19.22
2023-05-05T11:05:15.258Z,18.87
2023-05-05T11:07:44.695Z,18.92
2023-05-05T11:10:15.175Z,18.93
2023-05-05T11:13:22.024Z,18.68
2023-05-05T11:15:52.427Z,18.70
2023-05-05T11:18:37.457Z,18.60
2023-05-05T11:21:17.803Z,18.34
2023-05-05T11:23:48.818Z,18.28
2023-05-05T11:26:19.419Z,18.19
2023-05-05T11:28:59.402Z,18.21
2023-05-05T11:31:28.371Z,18.26
2023-05-05T11:34:30.249Z,18.18
2023-05-05T11:37:03.009Z,18.09
2023-05-05T11:39:42.421Z,17.95
2023-05-05T11:42:25.917Z,17.78
2023-05-05T11:44:55.741Z,17.76
2023-05-05T11:47:33.796Z,17.55
2023-05-05T11:50:23.269Z,17.54
2023-05-05T11:52:51.872Z,17.03
2023-05-05T11:55:23.970Z,16.98
2023-05-05T11:57:52.438Z,16.63
2023-05-05T12:00:21.792Z,16.51
2023-05-05T12:02:58.462Z,16.51
2023-05-05T12:05:28.353Z,16.45
2023-05-05T12:08:00.042Z,16.35
2023-05-05T12:10:28.952Z,16.48
2023-05-05T12:12:57.453Z,16.37
2023-05-05T12:15:33.249Z,16.39
2023-05-05T12:18:03.089Z,16.54
2023-05-05T12:20:35.004Z,16.55
2023-05-05T12:23:05.066Z,16.57
2023-05-05T12:25:38.389Z,16.52
2023-05-05T12:28:09.343Z,16.43
2023-05-05T12:30:37.922Z,16.46
2023-05-05T12:33:08.402Z,16.40
2023-05-05T12:35:38.560Z,16.31
2023-05-05T12:38:07.008Z,16.29
2023-05-05T12:40:47.040Z,15.62
2023-05-05T12:43:31.144Z,16.21
2023-05-05T12:46:04.942Z,16.17
2023-05-05T12:48:33.841Z,16.14
2023-05-05T12:51:19.727Z,16.26
2023-05-05T12:53:49.162Z,15.91
2023-05-05T12:56:34.390Z,16.06
2023-05-05T12:59:03.793Z,16.05
2023-05-05T13:01:32.579Z,15.88
2023-05-05T13:04:13.181Z,15.96
2023-05-05T13:06:45.138Z,15.98
2023-05-05T13:09:25.205Z,16.06
2023-05-05T13:11:54.496Z,15.92
2023-05-05T13:14:23.767Z,15.88
2023-05-05T13:16:52.290Z,15.84
2023-05-05T13:19:20.691Z,15.94
2023-05-05T13:21:50.675Z,15.82
2023-05-05T13:24:28.687Z,15.85
2023-05-05T13:27:04.348Z,15.81
2023-05-05T13:29:33.706Z,15.67
2023-05-05T13:32:02.036Z,15.85
2023-05-05T13:34:30.388Z,15.78
2023-05-05T13:37:00.078Z,15.80
2023-05-05T13:39:28.355Z,15.96
2023-05-05T13:41:56.907Z,15.75
2023-05-05T13:44:25.237Z,15.98
2023-05-05T13:46:53.973Z,15.89
2023-05-05T13:49:22.314Z,16.15
2023-05-05T13:51:50.816Z,16.34
2023-05-05T13:54:20.534Z,16.25
2023-05-05T13:56:49.004Z,16.34
2023-05-05T13:59:17.395Z,16.21
2023-05-05T14:01:45.662Z,16.31
2023-05-05T14:04:14.099Z,16.34
2023-05-05T14:06:42.558Z,16.47
2023-05-05T14:09:10.931Z,16.64
2023-05-05T14:11:41.136Z,16.97
2023-05-05T14:14:09.462Z,16.92
2023-05-05T14:16:37.940Z,16.99
2023-05-05T14:19:06.740Z,16.87
2023-05-05T14:21:35.010Z,16.74
2023-05-05T14:24:03.461Z,17.17
2023-05-05T14:26:31.969Z,17.12
2023-05-05T14:29:01.745Z,17.34
2023-05-05T14:31:30.117Z,17.66
2023-05-05T14:33:58.621Z,17.13
2023-05-05T14:36:26.934Z,17.59
2023-05-05T14:38:55.443Z,17.83
2023-05-05T14:41:23.974Z,17.63
2023-05-05T14:43:52.337Z,18.20
2023-05-05T14:46:22.205Z,18.28
2023-05-05T14:48:50.624Z,18.34
2023-05-05T14:51:18.998Z,18.34
2023-05-05T14:53:47.815Z,18.31
2023-05-05T14:56:16.968Z,18.51
2023-05-05T14:58:46.414Z,17.92
2023-05-05T15:01:15.835Z,18.10
2023-05-05T15:03:45.676Z,18.11
2023-05-05T15:06:14.281Z,18.45
2023-05-05T15:08:42.725Z,18.47
2023-05-05T15:11:11.177Z,18.38
2023-05-05T15:13:41.402Z,18.78
2023-05-05T15:16:10.131Z,18.81
2023-05-05T15:18:38.605Z,19.01
2023-05-05T15:21:08.538Z,19.12
2023-05-05T15:23:37.118Z,19.24
2023-05-05T15:26:05.460Z,19.29
2023-05-05T15:28:33.816Z,19.27
2023-05-05T15:31:02.670Z,19.42
2023-05-05T15:33:31.805Z,19.54
2023-05-05T15:36:00.312Z,19.46
2023-05-05T15:38:31.304Z,19.39
2023-05-05T15:40:59.756Z,19.61
2023-05-05T15:43:28.374Z,19.56
2023-05-05T15:45:56.734Z,19.37
2023-05-05T15:48:25.034Z,19.31
2023-05-05T15:50:53.467Z,19.47
2023-05-05T15:53:21.805Z,19.49
2023-05-05T15:55:51.462Z,19.62
2023-05-05T15:58:19.960Z,19.69
2023-05-05T16:00:48.368Z,19.90
2023-05-05T16:03:16.832Z,19.89
2023-05-05T16:05:45.319Z,19.90
2023-05-05T16:08:13.883Z,19.95
2023-05-05T16:10:42.377Z,19.95
2023-05-05T16:13:12.147Z,19.97
2023-05-05T16:15:40.907Z,19.99
2023-05-05T16:18:09.246Z,20.12
2023-05-05T16:20:37.648Z,20.24
2023-05-05T16:23:06.820Z,20.28
2023-05-05T16:25:35.200Z,20.40
2023-05-05T16:28:03.532Z,20.39
2023-05-05T16:30:33.295Z,20.41
2023-05-05T16:33:01.813Z,20.54
2023-05-05T16:35:30.164Z,20.63
2023-05-05T16:37:58.573Z,20.62
2023-05-05T16:40:26.951Z,20.49
2023-05-05T16:42:55.357Z,20.56
2023-05-05T16:45:24.419Z,20.60
2023-05-05T16:47:55.370Z,20.60
2023-05-05T16:50:24.475Z,20.62
2023-05-05T16:52:52.893Z,20.61
2023-05-05T16:55:21.793Z,20.62
2023-05-05T16:57:50.136Z,20.62
2023-05-05T17:00:18.936Z,20.63
2023-05-05T17:02:47.365Z,20.58
2023-05-05T17:05:17.684Z,20.61
2023-05-05T17:07:48.324Z,20.56
2023-05-05T17:10:16.708Z,20.56
2023-05-05T17:12:45.076Z,20.58
2023-05-05T17:15:13.588Z,20.45
2023-05-05T17:17:43.005Z,20.52
2023-05-05T17:20:13.059Z,20.08
2023-05-05T17:22:42.773Z,20.61
2023-05-05T17:25:11.727Z,20.68
2023-05-05T17:27:40.309Z,20.66
2023-05-05T17:30:10.440Z,20.65
2023-05-05T17:32:38.980Z,20.68
2023-05-05T17:35:08.469Z,20.72
2023-05-05T17:37:37.682Z,20.73
2023-05-05T17:40:09.381Z,20.76
2023-05-05T17:42:38.314Z,20.79
2023-05-05T17:45:08.724Z,20.78
2023-05-05T17:47:37.413Z,20.73
2023-05-05T17:50:07.233Z,20.70
2023-05-05T17:52:35.576Z,20.65
2023-05-05T17:55:03.860Z,20.62
2023-05-05T17:57:33.568Z,20.58
2023-05-05T18:00:05.716Z,20.54
2023-05-05T18:02:41.160Z,20.47
2023-05-05T18:05:10.751Z,20.38
2023-05-05T18:07:39.642Z,20.31
2023-05-05T18:10:10.648Z,20.20
2023-05-05T18:12:40.422Z,20.18
2023-05-05T18:15:10.244Z,19.69
2023-05-05T18:17:39.057Z,20.05
2023-05-05T18:20:09.165Z,20.03
2023-05-05T18:22:37.554Z,19.95
2023-05-05T18:25:08.261Z,19.94
2023-05-05T18:27:37.325Z,19.86
2023-05-05T18:30:09.198Z,19.74
2023-05-05T18:32:38.470Z,19.64
2023-05-05T18:35:08.377Z,19.59
2023-05-05T18:37:37.125Z,19.61
2023-05-05T18:40:09.940Z,19.68
2023-05-05T18:42:38.351Z,19.73
2023-05-05T18:45:10.589Z,19.71
2023-05-05T18:47:39.958Z,19.59
2023-05-05T18:50:10.629Z,19.64
2023-05-05T18:52:38.911Z,19.61
2023-05-05T18:55:08.193Z,19.57
2023-05-05T18:57:36.740Z,19.55
2023-05-05T19:00:07.906Z,19.56
2023-05-05T19:02:36.541Z,19.51
2023-05-05T19:05:05.571Z,19.45
2023-05-05T19:07:35.881Z,19.37
2023-05-05T19:10:06.115Z,19.31
2023-05-05T19:12:34.762Z,19.12
2023-05-05T19:15:03.243Z,18.98
2023-05-05T19:17:33.416Z,18.92
2023-05-05T19:20:02.358Z,18.89
2023-05-05T19:22:30.660Z,18.82
2023-05-05T19:24:59.007Z,18.80
2023-05-05T19:27:27.358Z,18.64
2023-05-05T19:29:55.793Z,18.54
2023-05-05T19:32:24.123Z,18.54
2023-05-05T19:34:54.589Z,18.39
2023-05-05T19:37:23.020Z,18.56
2023-05-05T19:39:51.727Z,18.36
2023-05-05T19:42:20.397Z,18.42
2023-05-05T19:44:48.761Z,18.20
2023-05-05T19:47:17.990Z,18.24
2023-05-05T19:49:46.399Z,18.13
2023-05-05T19:52:16.143Z,18.04
2023-05-05T19:54:44.677Z,17.82
2023-05-05T19:57:13.348Z,17.83
2023-05-05T19:59:42.216Z,17.81
2023-05-05T20:02:11.685Z,17.80
2023-05-05T20:04:40.222Z,17.74
2023-05-05T20:07:08.581Z,17.65
2023-05-05T20:09:39.433Z,17.49
2023-05-05T20:12:08.809Z,17.45
2023-05-05T20:14:37.147Z,17.41
2023-05-05T20:17:05.645Z,17.40
2023-05-05T20:19:38.599Z,17.37
2023-05-05T20:22:07.136Z,17.38
2023-05-05T20:24:36.937Z,16.71
2023-05-05T20:27:05.740Z,17.20
2023-05-05T20:29:34.169Z,17.09
2023-05-05T20:32:02.580Z,17.10
2023-05-05T20:34:31.552Z,17.13
2023-05-05T20:36:59.965Z,17.01
2023-05-05T20:39:28.347Z,16.88
2023-05-05T20:41:58.232Z,16.81
2023-05-05T20:44:26.715Z,16.68
2023-05-05T20:46:55.284Z,16.63
2023-05-05T20:49:23.613Z,16.59
2023-05-05T20:51:52.228Z,16.50
2023-05-05T20:54:20.606Z,16.50
2023-05-05T20:56:49.019Z,16.52
2023-05-05T20:59:18.815Z,15.98
2023-05-05T21:01:47.201Z,16.51
2023-05-05T21:04:15.818Z,16.40
2023-05-05T21:06:44.267Z,16.32
2023-05-05T21:09:12.961Z,16.23
2023-05-05T21:11:41.376Z,16.21
2023-05-05T21:14:10.664Z,16.11
2023-05-05T21:16:40.494Z,16.14
2023-05-05T21:19:08.982Z,16.17
2023-05-05T21:21:37.479Z,16.22
2023-05-05T21:24:08.097Z,16.26
2023-05-05T21:26:36.821Z,16.32
2023-05-05T21:29:05.133Z,16.32
2023-05-05T21:31:33.617Z,15.60
2023-05-05T21:34:04.070Z,16.38
2023-05-05T21:36:33.927Z,16.43
2023-05-05T21:39:02.607Z,16.52
2023-05-05T21:41:30.962Z,16.66
2023-05-05T21:44:02.359Z,16.81
2023-05-05T21:46:31.420Z,16.87
2023-05-05T21:48:59.834Z,16.91
2023-05-05T21:51:29.820Z,16.86
2023-05-05T21:53:58.852Z,16.98
2023-05-05T21:56:27.242Z,16.99
2023-05-05T21:58:55.620Z,16.94
2023-05-05T22:01:24.121Z,16.88
2023-05-05T22:03:52.744Z,16.80
2023-05-05T22:06:21.484Z,16.68
2023-05-05T22:08:51.855Z,16.38
2023-05-05T22:11:20.869Z,16.27
2023-05-05T22:13:49.205Z,16.23
2023-05-05T22:16:18.267Z,16.19
2023-05-05T22:18:47.213Z,16.32
2023-05-05T22:21:15.778Z,16.28
2023-05-05T22:23:44.128Z,16.28
2023-05-05T22:26:14.003Z,16.28
2023-05-05T22:28:42.862Z,16.23
2023-05-05T22:31:11.858Z,16.15
2023-05-05T22:33:40.714Z,16.18
2023-05-05T22:36:11.518Z,16.19
2023-05-05T22:38:39.966Z,16.11
2023-05-05T22:41:08.389Z,16.10
2023-05-05T22:43:38.083Z,16.14
2023-05-05T22:46:06.712Z,16.17
2023-05-05T22:48:35.009Z,16.14
2023-05-05T22:51:03.672Z,16.22
2023-05-05T22:53:31.976Z,16.41
2023-05-05T22:56:00.647Z,16.34
2023-05-05T22:58:29.318Z,16.28
2023-05-05T23:00:59.210Z,16.33
2023-05-05T23:03:28.692Z,16.27
2023-05-05T23:05:59.167Z,16.12
2023-05-05T23:08:27.483Z,15.84
2023-05-05T23:10:55.870Z,15.79
2023-05-05T23:13:24.178Z,15.76
2023-05-05T23:15:52.552Z,15.76
2023-05-05T23:18:22.272Z,15.69
2023-05-05T23:20:50.578Z,15.62
2023-05-05T23:23:18.946Z,15.65
2023-05-05T23:25:47.287Z,15.66
2023-05-05T23:28:15.637Z,15.79
2023-05-05T23:30:43.984Z,15.74
2023-05-05T23:33:12.314Z,15.45
2023-05-05T23:35:43.509Z,15.53
2023-05-05T23:38:11.921Z,15.58
2023-05-05T23:40:40.307Z,15.58
2023-05-05T23:43:08.807Z,15.59
2023-05-05T23:45:37.098Z,15.46
2023-05-05T23:48:05.762Z,15.66
2023-05-05T23:50:34.140Z,15.72
2023-05-05T23:53:03.921Z,15.71
2023-05-05T23:55:32.262Z,15.74
2023-05-05T23:58:00.524Z,15.90
